SSX weather

Singita Safari Lodge Airport
Singita Safari Lodge, Mpumalanga, South Africa

Public forecast

Using degrees Celsius for public forecast. Weather courtesy of forecast.io.

METAR (pilot weather report)

Closest report is Hoedspruit Air Force Base Airport, 33.1 nm (61.2 km) NW. Retrieved 2019/07/17 12:00 UTC (27 minutes ago):

FAHS 171200Z AUTO 35008KT //// // ////// 27/M04 Q1024

TAF (pilot weather forecast)

Forecast is more than 12 hours old.

Closest forecast is Hoedspruit Air Force Base Airport, 33.1 nm (61.2 km) NW. Retrieved 2017/05/23 04:01 UTC (2 years ago):

TAF FAHS 230300Z 2304/2315 VRB02KT CAVOK TX29/2312ZTN12/2304Z